Time;durP1;ratioP1;P1;durP2;ratioP2;P2;SDS_P1;SDS_P2;PMS_P1;PMS_P2;Temp;Humidity;BMP_temperature;BMP_pressure;BME280_temperature;BME280_humidity;BME280_pressure;Samples;Min_cycle;Max_cycle;Signal;HPM_P1;HPM_P2
2023/05/11 00:01:07;;;;;;;;;3.00;3.00;;;;;14.55;63.57;100906.94;5089495;27;46033;-78
2023/05/11 00:03:34;;;;;;;;;2.00;1.00;;;;;14.52;63.49;100904.56;5073142;27;45737;-78
2023/05/11 00:06:00;;;;;;;;;2.00;2.00;;;;;14.50;63.43;100896.78;5074292;27;45660;-78
2023/05/11 00:08:25;;;;;;;;;2.50;2.25;;;;;14.56;63.98;100898.06;5074210;27;46728;-79
2023/05/11 00:10:51;;;;;;;;;2.25;2.25;;;;;14.57;63.74;100886.56;5074053;27;46249;-78
2023/05/11 00:13:17;;;;;;;;;3.00;2.00;;;;;14.52;63.70;100891.38;5074168;27;45800;-75
2023/05/11 00:15:42;;;;;;;;;2.00;2.00;;;;;14.45;63.60;100887.56;5074055;27;45632;-77
2023/05/11 00:21:29;;;;;;;;;3.75;3.00;;;;;14.33;63.82;100881.47;5073609;28;46107;-78
2023/05/11 00:23:55;;;;;;;;;3.00;2.25;;;;;14.27;64.04;100888.09;5073786;27;46002;-76
2023/05/11 00:26:21;;;;;;;;;3.00;2.50;;;;;14.27;64.45;100887.25;5074130;28;45679;-76
2023/05/11 00:28:46;;;;;;;;;3.25;2.25;;;;;14.24;64.34;100876.97;5073894;27;45807;-78
2023/05/11 00:31:12;;;;;;;;;2.00;1.75;;;;;14.26;64.15;100882.94;5073667;27;46181;-74
2023/05/11 00:36:58;;;;;;;;;3.25;3.00;;;;;14.29;64.09;100885.34;5062298;28;45932;-78
2023/05/11 00:39:24;;;;;;;;;2.50;2.25;;;;;14.28;64.19;100873.97;5073600;28;46477;-77
2023/05/11 00:41:49;;;;;;;;;2.00;2.00;;;;;14.32;64.48;100881.59;5073206;27;46044;-76
2023/05/11 00:44:15;;;;;;;;;2.75;2.00;;;;;14.36;64.42;100875.13;5073635;27;45644;-76
2023/05/11 00:46:41;;;;;;;;;4.50;2.25;;;;;14.37;64.10;100874.19;5072182;28;45757;-78
2023/05/11 00:49:07;;;;;;;;;3.25;2.00;;;;;14.32;63.83;100879.81;5073386;27;46548;-79
2023/05/11 00:51:33;;;;;;;;;2.00;2.00;;;;;14.27;64.36;100872.28;5073496;27;46082;-78
2023/05/11 00:53:59;;;;;;;;;2.00;1.25;;;;;14.22;64.62;100870.97;5073327;27;45525;-79
2023/05/11 00:56:25;;;;;;;;;2.75;2.00;;;;;14.23;64.34;100875.28;5073670;27;45670;-77
2023/05/11 00:58:51;;;;;;;;;1.25;1.00;;;;;14.20;64.73;100879.00;5073419;27;45442;-78
2023/05/11 01:01:17;;;;;;;;;3.00;2.00;;;;;14.18;64.54;100873.03;5073261;28;45899;-79
2023/05/11 01:07:22;;;;;;;;;2.00;2.00;;;;;14.23;64.53;100875.28;5073398;28;45787;-78
2023/05/11 01:10:12;;;;;;;;;3.50;2.00;;;;;14.20;64.53;100872.88;5073228;27;46570;-77
2023/05/11 01:13:15;;;;;;;;;3.50;1.00;;;;;14.16;64.67;100869.69;5073014;28;46096;-78
2023/05/11 01:15:50;;;;;;;;;3.00;2.00;;;;;14.18;64.75;100865.13;5075172;28;45495;-79
2023/05/11 01:18:29;;;;;;;;;2.75;2.00;;;;;14.19;64.88;100877.34;5076598;28;45543;-79
2023/05/11 01:21:00;;;;;;;;;5.00;2.25;;;;;14.17;64.83;100879.25;5076544;27;45909;-80
2023/05/11 01:23:28;;;;;;;;;1.75;1.00;;;;;14.20;64.78;100875.53;5076492;28;45887;-78
2023/05/11 01:26:27;;;;;;;;;2.00;2.00;;;;;14.18;65.35;100869.56;5076689;27;45663;-77
2023/05/11 01:29:02;;;;;;;;;2.00;2.00;;;;;14.15;65.18;100877.72;5076873;27;45804;-78
2023/05/11 01:31:30;;;;;;;;;2.25;1.50;;;;;14.13;64.98;100871.75;5076455;27;46277;-78
2023/05/11 01:34:11;;;;;;;;;1.25;1.00;;;;;14.11;65.51;100879.75;5076304;27;46322;-78
2023/05/11 01:36:44;;;;;;;;;2.00;2.00;;;;;14.09;65.37;100876.41;5074992;28;45718;-76
2023/05/11 01:39:12;;;;;;;;;1.75;1.00;;;;;14.05;65.68;100877.63;5076536;27;45778;-75
2023/05/11 01:41:40;;;;;;;;;2.00;0.25;;;;;14.00;65.44;100874.53;5076216;27;46397;-75
2023/05/11 01:44:09;;;;;;;;;2.00;1.25;;;;;13.98;65.69;100876.44;5075941;27;46424;-77
2023/05/11 01:46:34;;;;;;;;;1.75;1.50;;;;;13.97;65.60;100871.31;5076356;27;45635;-75
2023/05/11 01:49:04;;;;;;;;;1.00;1.00;;;;;13.95;65.95;100868.78;5076182;27;45576;-76
2023/05/11 01:51:35;;;;;;;;;2.00;1.00;;;;;13.92;65.80;100870.84;5076053;28;45528;-76
2023/05/11 01:54:05;;;;;;;;;2.75;1.25;;;;;13.95;66.17;100868.78;5076098;27;45919;-77
2023/05/11 01:56:32;;;;;;;;;0.75;0.00;;;;;13.98;66.38;100868.53;5076041;27;45752;-76
2023/05/11 01:58:59;;;;;;;;;2.25;2.00;;;;;13.96;66.40;100870.47;5076140;27;45968;-74
2023/05/11 02:01:27;;;;;;;;;2.50;1.00;;;;;13.99;66.13;100872.00;5075892;27;46408;-76
2023/05/11 02:03:54;;;;;;;;;1.00;1.00;;;;;14.01;66.02;100881.47;5075808;27;45909;-74
2023/05/11 02:06:22;;;;;;;;;1.00;1.00;;;;;13.96;66.10;100883.66;5076100;27;45647;-75
2023/05/11 02:08:49;;;;;;;;;2.00;1.00;;;;;13.92;66.29;100871.69;5076044;27;45691;-76
2023/05/11 02:11:16;;;;;;;;;1.00;1.00;;;;;13.92;66.20;100886.66;5075765;27;46545;-77
2023/05/11 02:13:43;;;;;;;;;0.75;0.75;;;;;13.91;66.69;100882.34;5075687;27;46062;-77
2023/05/11 02:16:10;;;;;;;;;2.75;1.00;;;;;13.84;66.56;100868.81;5075940;27;45765;-79
2023/05/11 02:18:42;;;;;;;;;1.00;1.00;;;;;13.91;66.66;100879.72;5075823;27;45609;-76
2023/05/11 02:21:08;;;;;;;;;1.00;0.50;;;;;13.92;66.92;100882.22;5075737;27;45724;-79
2023/05/11 02:23:36;;;;;;;;;3.00;1.75;;;;;13.92;66.85;100884.03;5075547;27;46208;-78
2023/05/11 02:26:03;;;;;;;;;2.75;2.00;;;;;13.90;67.26;100883.28;5075161;28;45830;-77
2023/05/11 02:28:29;;;;;;;;;2.00;2.00;;;;;13.77;67.53;100884.28;5075809;27;45893;-76
2023/05/11 02:31:04;;;;;;;;;2.50;2.00;;;;;13.77;67.38;100892.19;5075225;28;45658;-74
2023/05/11 02:33:35;;;;;;;;;2.00;2.00;;;;;13.74;68.00;100892.44;5074989;28;46264;-76
2023/05/11 02:36:02;;;;;;;;;2.50;2.00;;;;;13.75;68.08;100894.13;5075199;27;45498;-75
2023/05/11 02:38:37;;;;;;;;;3.00;2.00;;;;;13.71;68.03;100889.22;5075334;27;45538;-77
2023/05/11 02:41:11;;;;;;;;;3.00;2.00;;;;;13.72;68.50;100882.97;5075064;28;45519;-77
2023/05/11 02:43:41;;;;;;;;;4.25;3.00;;;;;13.75;68.16;100895.91;5075197;27;46150;-74
2023/05/11 02:46:12;;;;;;;;;2.00;1.75;;;;;13.74;68.51;100888.97;5074355;28;45596;-74
2023/05/11 02:48:41;;;;;;;;;4.00;3.00;;;;;13.71;68.20;100886.59;5075424;28;45864;-77
2023/05/11 02:51:10;;;;;;;;;3.75;2.00;;;;;13.67;68.01;100880.72;5090493;27;47376;-77
2023/05/11 02:53:38;;;;;;;;;2.50;2.50;;;;;13.65;68.46;100877.38;5074992;27;46060;-76
2023/05/11 02:56:05;;;;;;;;;2.50;1.75;;;;;13.67;68.46;100885.13;5075088;28;45689;-73
2023/05/11 02:58:30;;;;;;;;;2.75;2.00;;;;;13.64;68.61;100880.13;5090875;27;45733;-75
2023/05/11 03:00:57;;;;;;;;;2.00;1.75;;;;;13.62;68.72;100874.97;5074981;28;45583;-78
2023/05/11 03:03:23;;;;;;;;;1.75;1.50;;;;;13.62;68.17;100874.13;5090357;27;47368;-75
2023/05/11 03:09:10;;;;;;;;;1.00;1.00;;;;;13.62;68.32;100879.41;5074665;28;45604;-78
2023/05/11 03:11:36;;;;;;;;;2.50;1.00;;;;;13.62;68.52;100880.22;5074868;27;46664;-75
2023/05/11 03:14:02;;;;;;;;;1.25;1.25;;;;;13.62;68.24;100872.34;5074643;27;46101;-74
2023/05/11 03:16:28;;;;;;;;;3.00;2.00;;;;;13.60;68.13;100883.97;5074940;27;45661;-77
2023/05/11 03:18:55;;;;;;;;;4.00;2.25;;;;;13.56;68.08;100882.50;5074883;28;45849;-75
2023/05/11 03:21:22;;;;;;;;;2.75;1.00;;;;;13.47;68.10;100884.09;5074672;27;46388;-77
2023/05/11 03:23:48;;;;;;;;;3.25;1.00;;;;;13.41;68.61;100880.13;5074535;28;46404;-76
2023/05/11 03:26:16;;;;;;;;;2.00;0.00;;;;;13.42;68.77;100883.63;5074913;27;45895;-76
2023/05/11 03:28:44;;;;;;;;;2.00;2.00;;;;;13.41;68.51;100874.88;5073509;28;45599;-76
2023/05/11 03:31:10;;;;;;;;;0.75;0.75;;;;;13.35;68.57;100869.25;5074464;28;45580;-77
2023/05/11 03:33:35;;;;;;;;;1.00;1.00;;;;;13.36;68.66;100871.78;5089906;27;46166;-76
2023/05/11 03:39:38;;;;;;;;;2.00;1.00;;;;;13.41;68.67;100874.03;5065175;28;45720;-76
2023/05/11 03:42:05;;;;;;;;;3.00;2.50;;;;;13.41;68.32;100868.78;5074549;27;45694;-77
2023/05/11 03:44:32;;;;;;;;;1.00;1.00;;;;;13.36;68.36;100874.41;5074374;27;46135;-76
2023/05/11 03:46:59;;;;;;;;;4.00;2.00;;;;;13.34;68.56;100872.84;5074790;28;45738;-76
2023/05/11 03:49:26;;;;;;;;;1.00;1.00;;;;;13.36;68.37;100877.03;5074499;28;45882;-77
2023/05/11 03:51:52;;;;;;;;;2.00;1.00;;;;;13.40;68.29;100877.63;5074397;27;45477;-76
2023/05/11 03:54:18;;;;;;;;;2.00;1.25;;;;;13.36;68.55;100860.41;5072716;28;47074;-78
2023/05/11 03:56:43;;;;;;;;;2.00;2.00;;;;;13.34;68.64;100868.41;5074312;27;45647;-76
2023/05/11 03:59:14;;;;;;;;;2.00;1.00;;;;;13.32;68.34;100867.72;5089843;27;45655;-75
2023/05/11 04:01:41;;;;;;;;;1.25;1.00;;;;;13.27;68.45;100864.59;5074035;27;45615;-77
2023/05/11 04:04:07;;;;;;;;;2.50;2.00;;;;;13.24;68.65;100866.63;5074081;27;46582;-77
2023/05/11 04:09:54;;;;;;;;;2.00;2.00;;;;;13.12;69.04;100864.97;5073930;28;45435;-75
2023/05/11 04:12:20;;;;;;;;;1.50;1.50;;;;;13.08;69.12;100866.09;5074014;27;45588;-76
2023/05/11 04:14:45;;;;;;;;;1.00;1.00;;;;;13.06;69.56;100868.03;5074159;28;45596;-75
2023/05/11 04:17:10;;;;;;;;;1.50;1.50;;;;;13.04;69.24;100866.34;5073899;27;45783;-77
2023/05/11 04:19:36;;;;;;;;;1.00;1.00;;;;;13.09;68.99;100860.72;5074052;27;45773;-75
2023/05/11 04:22:01;;;;;;;;;2.75;1.75;;;;;13.13;69.55;100869.25;5073435;27;45649;-74
2023/05/11 04:24:27;;;;;;;;;2.50;1.00;;;;;13.14;69.26;100860.41;5073953;27;46219;-76
2023/05/11 04:26:55;;;;;;;;;2.00;2.00;;;;;13.14;69.34;100855.97;5074034;27;46130;-75
2023/05/11 04:29:21;;;;;;;;;2.25;1.25;;;;;13.21;69.04;100861.59;5074062;27;45776;-74
2023/05/11 04:31:46;;;;;;;;;2.25;1.50;;;;;13.22;68.88;100858.88;5073695;27;45666;-76
2023/05/11 04:34:12;;;;;;;;;2.00;2.00;;;;;13.28;68.74;100865.44;5073154;27;46133;-75
2023/05/11 04:39:59;;;;;;;;;2.75;2.00;;;;;13.34;68.78;100863.16;5067396;28;45764;-76
2023/05/11 04:42:24;;;;;;;;;3.00;3.00;;;;;13.29;68.79;100860.03;5073652;27;45572;-77
2023/05/11 04:44:53;;;;;;;;;1.00;1.00;;;;;13.29;68.38;100867.94;5073616;27;45694;-77
2023/05/11 04:47:19;;;;;;;;;4.50;3.00;;;;;13.21;68.69;100862.44;5073716;27;45820;-74
2023/05/11 04:49:44;;;;;;;;;4.25;3.00;;;;;13.20;69.01;100870.44;5075582;27;45860;-72
2023/05/11 04:55:31;;;;;;;;;3.00;2.00;;;;;13.15;68.90;100868.19;5076975;28;46213;-76
2023/05/11 04:57:56;;;;;;;;;2.00;2.00;;;;;13.16;68.77;100874.28;5076811;27;45472;-74
2023/05/11 05:00:22;;;;;;;;;3.00;2.00;;;;;13.15;68.94;100869.97;5076695;27;45764;-74
2023/05/11 05:02:49;;;;;;;;;3.75;3.00;;;;;13.14;68.90;100877.03;5076884;28;46623;-75
2023/05/11 05:05:15;;;;;;;;;4.00;3.00;;;;;13.18;68.78;100872.34;5076569;27;46963;-77
2023/05/11 05:07:40;;;;;;;;;4.25;3.75;;;;;13.24;68.92;100866.63;5076433;27;45663;-78
2023/05/11 05:10:07;;;;;;;;;3.50;3.00;;;;;13.23;68.66;100876.31;5077196;27;45740;-77
2023/05/11 05:12:34;;;;;;;;;5.75;2.75;;;;;13.27;68.72;100880.41;5076309;28;46504;-77
2023/05/11 05:15:00;;;;;;;;;3.50;3.00;;;;;13.23;68.85;100873.66;5076640;28;46207;-78
2023/05/11 05:17:25;;;;;;;;;3.50;2.50;;;;;13.30;68.92;100880.13;5091806;27;45609;-77
2023/05/11 05:19:50;;;;;;;;;3.00;3.00;;;;;13.32;68.57;100886.13;5076781;27;45617;-78
2023/05/11 05:25:37;;;;;;;;;3.00;2.75;;;;;13.31;68.86;100892.34;5076206;28;45745;-77
2023/05/11 05:28:03;;;;;;;;;4.00;3.25;;;;;13.28;68.47;100891.75;5076707;27;45684;-76
2023/05/11 05:30:29;;;;;;;;;3.00;3.00;;;;;13.24;68.65;100896.41;5076674;27;45799;-77
2023/05/11 05:32:55;;;;;;;;;5.25;3.75;;;;;13.25;69.01;100897.25;5076170;27;47847;-76
2023/05/11 05:35:20;;;;;;;;;4.00;3.75;;;;;13.25;68.55;100903.34;5076289;28;45941;-77
2023/05/11 05:41:07;;;;;;;;;7.50;5.50;;;;;13.21;69.03;100894.03;5065047;28;45817;-77
2023/05/11 05:43:33;;;;;;;;;4.50;4.25;;;;;13.23;69.02;100907.88;5076217;27;46861;-79
2023/05/11 05:45:58;;;;;;;;;6.75;4.00;;;;;13.22;68.84;100908.00;5076490;28;45698;-77
2023/05/11 05:48:24;;;;;;;;;4.00;3.50;;;;;13.20;69.16;100908.13;5076160;28;45841;-78
2023/05/11 05:57:13;;;;;;;;;4.25;4.00;;;;;13.30;69.14;100914.34;5075688;28;45547;-77
2023/05/11 05:59:39;;;;;;;;;4.25;4.00;;;;;13.28;68.53;100918.88;5076012;27;45569;-78
2023/05/11 06:02:05;;;;;;;;;4.00;4.00;;;;;13.28;68.95;100923.34;5075394;27;45660;-77
2023/05/11 06:04:30;;;;;;;;;8.25;8.00;;;;;13.33;69.15;100919.34;5076160;27;45794;-78
2023/05/11 06:06:56;;;;;;;;;4.00;4.00;;;;;13.37;69.17;100910.28;5075767;27;45946;-78
2023/05/11 06:09:22;;;;;;;;;5.00;4.25;;;;;13.41;69.10;100927.50;5076008;27;45694;-78
2023/05/11 06:11:47;;;;;;;;;7.00;4.00;;;;;13.41;68.62;100910.88;5076204;27;45791;-78
2023/05/11 06:14:12;;;;;;;;;6.50;3.75;;;;;13.45;68.59;100923.69;5075640;27;46242;-78
2023/05/11 06:16:38;;;;;;;;;5.50;3.25;;;;;13.49;68.99;100920.81;5075715;27;45949;-77
2023/05/11 06:19:03;;;;;;;;;7.00;5.00;;;;;13.44;68.66;100919.38;5075660;27;45615;-76
2023/05/11 06:21:28;;;;;;;;;4.75;4.00;;;;;13.47;69.01;100931.47;5076162;27;45593;-77
2023/05/11 06:23:54;;;;;;;;;8.25;3.75;;;;;13.44;69.01;100929.91;5075742;27;46330;-77
2023/05/11 06:26:23;;;;;;;;;3.00;3.00;;;;;13.42;68.90;100925.72;5075330;27;46005;-76
2023/05/11 06:28:49;;;;;;;;;4.50;4.00;;;;;13.41;68.77;100922.25;5075565;27;45799;-76
2023/05/11 06:31:14;;;;;;;;;6.75;5.00;;;;;13.38;68.97;100934.81;5077344;27;45504;-75
2023/05/11 06:33:40;;;;;;;;;4.25;4.00;;;;;13.34;69.00;100933.34;5076614;27;46385;-76
2023/05/11 06:36:06;;;;;;;;;4.00;4.00;;;;;13.37;68.75;100941.03;5075571;27;45583;-76
2023/05/11 06:41:53;;;;;;;;;5.25;4.00;;;;;13.43;69.40;100936.13;5067530;28;45756;-76
2023/05/11 06:44:18;;;;;;;;;5.00;4.00;;;;;13.49;69.29;100937.47;5075133;27;46516;-76
2023/05/11 06:46:44;;;;;;;;;5.00;4.00;;;;;13.54;68.79;100943.19;5075166;27;45568;-77
2023/05/11 06:49:09;;;;;;;;;4.50;4.00;;;;;13.56;68.82;100937.78;5075320;28;45456;-77
2023/05/11 06:51:34;;;;;;;;;6.00;4.00;;;;;13.54;68.76;100942.34;5075197;27;45590;-78
2023/05/11 06:57:22;;;;;;;;;8.25;4.75;;;;;13.58;68.92;100938.53;5075012;28;45998;-76
2023/05/11 06:59:47;;;;;;;;;6.00;4.00;;;;;13.63;69.17;100941.63;5075110;27;45616;-78
2023/05/11 07:02:13;;;;;;;;;5.00;5.00;;;;;13.63;68.80;100939.00;5090383;27;45905;-78
2023/05/11 07:04:38;;;;;;;;;4.75;4.75;;;;;13.65;68.68;100937.94;5074867;27;46411;-77
2023/05/11 07:07:04;;;;;;;;;7.00;5.00;;;;;13.71;68.71;100941.88;5074885;27;46596;-75
2023/05/11 07:09:29;;;;;;;;;8.00;7.00;;;;;13.72;68.62;100928.56;5074675;27;46067;-76
2023/05/11 07:11:55;;;;;;;;;7.25;6.00;;;;;13.78;68.47;100935.16;5074834;27;45482;-78
2023/05/11 07:14:20;;;;;;;;;4.00;3.00;;;;;13.83;68.15;100946.16;5074738;27;45458;-77
2023/05/11 07:16:46;;;;;;;;;8.00;6.25;;;;;13.84;68.29;100939.94;5074518;27;45914;-74
2023/05/11 07:19:12;;;;;;;;;4.75;4.00;;;;;13.90;68.40;100933.34;5074230;27;45607;-75
2023/05/11 07:21:37;;;;;;;;;3.75;3.00;;;;;13.95;68.16;100931.19;5074655;27;45849;-76
2023/05/11 07:27:24;;;;;;;;;5.00;4.75;;;;;13.91;67.87;100930.59;5074508;28;46007;-75
2023/05/11 07:29:51;;;;;;;;;6.50;5.50;;;;;13.91;67.54;100933.22;5074541;27;45446;-76
2023/05/11 07:32:16;;;;;;;;;7.25;6.25;;;;;13.87;67.57;100927.34;5074702;27;45499;-76
2023/05/11 07:34:43;;;;;;;;;6.50;5.00;;;;;13.90;68.24;100941.25;5074923;27;45728;-81
2023/05/11 07:37:09;;;;;;;;;6.75;5.00;;;;;13.93;68.13;100935.75;5074415;27;46082;-76
2023/05/11 07:42:55;;;;;;;;;6.00;4.00;;;;;14.10;67.46;100943.13;5063699;28;45716;-78
2023/05/11 07:45:21;;;;;;;;;8.00;4.50;;;;;14.11;67.67;100935.09;5073913;27;46333;-75
2023/05/11 07:47:46;;;;;;;;;4.25;4.25;;;;;14.10;67.56;100943.97;5073899;28;45553;-77
2023/05/11 07:50:11;;;;;;;;;8.00;6.25;;;;;14.08;67.13;100943.25;5089784;27;45564;-76
2023/05/11 07:52:40;;;;;;;;;9.00;8.00;;;;;14.13;67.55;100938.47;5074083;27;45539;-77
2023/05/11 07:55:06;;;;;;;;;7.00;5.75;;;;;14.20;66.87;100941.41;5089800;27;47896;-75
2023/05/11 07:57:32;;;;;;;;;7.75;6.50;;;;;14.21;66.91;100936.03;5074096;27;46175;-76
2023/05/11 07:59:57;;;;;;;;;6.25;6.00;;;;;14.29;67.25;100936.25;5074117;27;45600;-77
2023/05/11 08:02:23;;;;;;;;;5.50;5.00;;;;;14.39;66.90;100939.00;5074179;27;45681;-75
2023/05/11 08:04:48;;;;;;;;;9.50;5.75;;;;;14.52;66.49;100938.84;5073598;28;45674;-74
2023/05/11 08:07:13;;;;;;;;;7.75;7.75;;;;;14.60;65.96;100944.31;5073815;27;45615;-75
2023/05/11 08:13:00;;;;;;;;;1.25;0.50;;;;;14.62;65.79;100942.41;5073966;28;45576;-75
2023/05/11 08:15:26;;;;;;;;;7.25;6.00;;;;;14.66;65.67;100935.91;5074010;27;45669;-75
2023/05/11 08:17:52;;;;;;;;;8.00;6.50;;;;;14.73;65.55;100934.44;5073711;27;46610;-75
2023/05/11 08:20:17;;;;;;;;;8.00;7.25;;;;;14.78;65.58;100934.03;5074012;27;45670;-74
2023/05/11 08:22:43;;;;;;;;;6.25;5.50;;;;;14.84;65.34;100925.63;5073972;27;45639;-74
2023/05/11 08:28:30;;;;;;;;;5.00;5.00;;;;;14.93;65.00;100938.03;5080288;28;45657;-73
2023/05/11 08:30:57;;;;;;;;;7.00;7.00;;;;;14.96;64.65;100940.41;5080429;27;45572;-74
2023/05/11 08:33:22;;;;;;;;;7.25;6.50;;;;;15.04;64.54;100935.31;5080524;27;45845;-74
2023/05/11 08:35:48;;;;;;;;;4.00;4.00;;;;;15.10;64.30;100943.56;5080580;27;46878;-73
2023/05/11 08:38:14;;;;;;;;;7.25;6.00;;;;;15.12;63.76;100935.50;5096001;27;46125;-73
2023/05/11 08:40:46;;;;;;;;;7.00;6.00;;;;;15.20;64.10;100934.84;5080437;27;45439;-74
2023/05/11 08:43:12;;;;;;;;;10.50;8.75;;;;;15.29;63.33;100937.53;5080137;27;45784;-74
2023/05/11 08:45:40;;;;;;;;;10.25;8.75;;;;;15.32;63.76;100939.09;5080289;27;46712;-73
2023/05/11 08:48:06;;;;;;;;;9.75;9.00;;;;;15.39;63.54;100921.75;5080396;27;46170;-73
2023/05/11 08:50:32;;;;;;;;;5.25;5.00;;;;;15.41;62.89;100928.59;5080261;28;45725;-74
2023/05/11 08:52:57;;;;;;;;;7.25;7.00;;;;;15.41;63.00;100933.88;5080346;28;45768;-75
2023/05/11 08:58:46;;;;;;;;;10.50;8.75;;;;;15.48;62.97;100926.25;5079654;28;46374;-75
2023/05/11 09:01:11;;;;;;;;;7.25;7.00;;;;;15.53;63.01;100930.19;5080446;27;45470;-75
2023/05/11 09:03:38;;;;;;;;;8.00;7.25;;;;;15.56;62.73;100923.81;5080147;27;45631;-75
2023/05/11 09:06:06;;;;;;;;;9.25;7.00;;;;;15.63;62.49;100927.59;5080111;27;46353;-75
2023/05/11 09:08:35;;;;;;;;;8.25;7.00;;;;;15.62;62.39;100927.72;5080090;27;46534;-74
2023/05/11 09:11:01;;;;;;;;;8.00;7.75;;;;;15.59;62.36;100920.91;5080046;27;45533;-74
2023/05/11 09:13:28;;;;;;;;;9.25;7.00;;;;;15.61;62.29;100923.41;5080035;27;45659;-73
2023/05/11 09:15:54;;;;;;;;;6.50;6.25;;;;;15.66;62.26;100922.03;5095588;27;46637;-74
2023/05/11 09:18:19;;;;;;;;;6.50;6.50;;;;;15.69;62.33;100919.13;5079897;27;46317;-75
2023/05/11 09:20:45;;;;;;;;;6.00;5.75;;;;;15.77;61.51;100921.94;5080233;27;45600;-76
2023/05/11 09:23:15;;;;;;;;;6.50;6.00;;;;;15.78;61.11;100922.75;5080122;28;45575;-73
2023/05/11 09:29:02;;;;;;;;;4.00;3.75;;;;;15.86;61.04;100923.78;5079681;28;46114;-75
2023/05/11 09:31:34;;;;;;;;;7.00;6.00;;;;;15.94;61.19;100926.56;5078433;28;45604;-74
2023/05/11 09:34:15;;;;;;;;;6.25;5.00;;;;;16.04;61.07;100925.75;5080197;27;45737;-76
2023/05/11 09:36:45;;;;;;;;;6.50;6.25;;;;;16.10;61.07;100919.91;5075508;27;45621;-77
2023/05/11 09:39:15;;;;;;;;;6.00;5.25;;;;;16.19;60.61;100929.69;5076231;27;46266;-76
2023/05/11 09:41:41;;;;;;;;;4.75;4.25;;;;;16.18;59.88;100922.72;5076154;27;45746;-76
2023/05/11 09:44:11;;;;;;;;;7.00;5.75;;;;;16.13;60.20;100922.31;5075089;28;45572;-75
2023/05/11 09:46:38;;;;;;;;;4.50;4.50;;;;;16.17;60.54;100921.03;5076576;27;45603;-76
2023/05/11 09:49:05;;;;;;;;;8.25;6.00;;;;;16.18;60.32;100920.09;5076065;27;47170;-76
2023/05/11 09:51:33;;;;;;;;;8.00;7.00;;;;;16.21;59.90;100909.22;5076338;28;45525;-77
2023/05/11 09:54:00;;;;;;;;;6.75;4.50;;;;;16.27;60.08;100920.09;5076508;28;45641;-76
2023/05/11 09:56:57;;;;;;;;;4.50;4.50;;;;;16.34;60.01;100913.28;5076217;28;45827;-75
2023/05/11 09:59:40;;;;;;;;;5.25;4.75;;;;;16.44;59.39;100917.72;5091532;27;46347;-75
2023/05/11 10:02:24;;;;;;;;;6.00;5.50;;;;;16.40;59.11;100914.53;5074233;28;45682;-75
2023/05/11 10:04:52;;;;;;;;;6.00;5.00;;;;;16.34;59.57;100904.50;5076296;28;45842;-76
2023/05/11 10:07:30;;;;;;;;;6.00;5.00;;;;;16.40;59.63;100903.97;5075778;27;45689;-77
2023/05/11 10:10:00;;;;;;;;;6.00;5.00;;;;;16.48;59.35;100904.06;5076622;28;46173;-77
2023/05/11 10:12:26;;;;;;;;;8.50;5.50;;;;;16.57;59.08;100908.53;5076577;28;45760;-76
2023/05/11 10:15:04;;;;;;;;;6.00;5.00;;;;;16.60;58.40;100902.16;5075789;27;45778;-77
2023/05/11 10:17:30;;;;;;;;;3.00;2.75;;;;;16.67;58.55;100898.81;5075465;27;45595;-77
2023/05/11 10:19:56;;;;;;;;;5.00;4.00;;;;;16.75;57.81;100908.69;5075514;28;45951;-76
2023/05/11 10:22:26;;;;;;;;;7.25;7.00;;;;;16.77;57.97;100898.81;5075520;27;45800;-75
2023/05/11 10:24:53;;;;;;;;;6.00;5.00;;;;;16.76;57.99;100897.97;5075233;28;45558;-75
2023/05/11 10:27:20;;;;;;;;;4.75;3.75;;;;;16.79;57.16;100910.91;5075641;28;45734;-76
2023/05/11 10:29:46;;;;;;;;;6.00;5.00;;;;;16.76;57.17;100895.31;5075607;27;46188;-75
2023/05/11 10:32:13;;;;;;;;;5.50;4.25;;;;;16.74;57.69;100901.72;5074475;28;45770;-77
2023/05/11 10:34:41;;;;;;;;;5.00;4.00;;;;;16.76;57.35;100905.06;5075547;27;45573;-75
2023/05/11 10:37:07;;;;;;;;;3.25;2.50;;;;;16.74;56.72;100907.00;5075442;27;46393;-75
2023/05/11 10:39:38;;;;;;;;;4.00;3.25;;;;;16.70;57.16;100885.31;5074970;27;45701;-79
2023/05/11 10:42:17;;;;;;;;;4.50;3.75;;;;;16.72;56.62;100895.75;5075237;27;45744;-76
2023/05/11 10:45:09;;;;;;;;;4.25;4.25;;;;;16.62;56.79;100903.72;5075133;27;45576;-76
2023/05/11 10:47:53;;;;;;;;;5.00;3.75;;;;;16.58;56.32;100901.41;5074191;28;46480;-74
2023/05/11 10:50:56;;;;;;;;;5.25;4.25;;;;;16.50;56.49;100896.00;5076055;27;45920;-76
2023/05/11 10:53:40;;;;;;;;;5.50;4.00;;;;;16.44;57.06;100896.56;5074720;28;45764;-77
2023/05/11 10:56:18;;;;;;;;;6.00;4.25;;;;;16.38;57.38;100893.50;5075508;27;45540;-75
2023/05/11 10:58:57;;;;;;;;;4.00;4.00;;;;;16.32;57.52;100902.00;5074454;27;45694;-75
2023/05/11 11:01:38;;;;;;;;;4.75;4.75;;;;;16.31;57.54;100896.84;5074769;28;46464;-75
2023/05/11 11:04:05;;;;;;;;;3.25;3.00;;;;;16.28;57.52;100897.97;5074572;27;45520;-75
2023/05/11 11:06:33;;;;;;;;;7.25;5.25;;;;;16.17;57.53;100898.09;5073605;28;45865;-74
2023/05/11 11:09:01;;;;;;;;;4.00;3.50;;;;;16.16;57.43;100892.94;5075045;27;46608;-74
2023/05/11 11:11:29;;;;;;;;;3.25;3.25;;;;;16.15;58.05;100885.97;5074715;27;45919;-74
2023/05/11 11:14:01;;;;;;;;;3.25;3.00;;;;;16.13;58.19;100894.06;5074795;27;45628;-76
2023/05/11 11:16:26;;;;;;;;;4.00;3.00;;;;;16.16;57.92;100892.94;5074934;27;45667;-73
2023/05/11 11:19:41;;;;;;;;;5.75;4.25;;;;;16.17;58.14;100891.97;5074621;27;45622;-76
2023/05/11 11:22:32;;;;;;;;;7.00;5.75;;;;;16.18;57.88;100885.72;5031783;28;45611;-76
2023/05/11 11:28:19;;;;;;;;;3.75;3.00;;;;;16.13;57.89;100877.38;5031755;28;45814;-76
2023/05/11 11:30:45;;;;;;;;;5.50;5.25;;;;;16.18;57.83;100885.72;5032276;28;46397;-75
2023/05/11 11:33:10;;;;;;;;;4.00;4.00;;;;;16.16;57.59;100880.56;5031803;28;46321;-74
2023/05/11 11:35:38;;;;;;;;;5.25;4.00;;;;;16.22;57.81;100881.81;5031857;28;45701;-74
2023/05/11 11:38:04;;;;;;;;;4.00;4.00;;;;;16.28;57.20;100878.63;5032131;28;45847;-74
2023/05/11 11:43:54;;;;;;;;;4.00;3.00;;;;;16.26;56.41;100881.38;5023299;28;46436;-76
2023/05/11 11:46:27;;;;;;;;;4.75;4.75;;;;;16.28;55.67;100878.63;5031636;28;45749;-75
2023/05/11 11:49:07;;;;;;;;;3.00;3.00;;;;;16.27;56.09;100869.00;5031745;28;45874;-77
2023/05/11 11:51:33;;;;;;;;;2.00;2.00;;;;;16.33;55.60;100865.81;5031443;28;45759;-75
2023/05/11 11:53:59;;;;;;;;;2.25;2.25;;;;;16.43;55.24;100865.81;5031718;28;46200;-73
2023/05/11 11:59:47;;;;;;;;;3.00;3.00;;;;;16.41;53.87;100871.22;5073239;28;45628;-77
2023/05/11 12:02:15;;;;;;;;;2.75;2.75;;;;;16.33;53.58;100869.28;5073959;27;46829;-76
2023/05/11 12:04:51;;;;;;;;;3.00;3.00;;;;;16.29;54.17;100865.25;5074155;28;45935;-74
2023/05/11 12:07:19;;;;;;;;;3.25;3.25;;;;;16.37;53.83;100875.13;5074023;27;45644;-74
2023/05/11 12:09:47;;;;;;;;;1.50;1.50;;;;;16.38;54.15;100869.72;5074194;27;45690;-77
2023/05/11 12:15:34;;;;;;;;;3.75;2.75;;;;;16.51;53.47;100877.38;5073600;28;45627;-74
2023/05/11 12:18:01;;;;;;;;;2.50;2.50;;;;;16.54;53.34;100871.78;5073704;27;45474;-74
2023/05/11 12:20:27;;;;;;;;;3.75;2.75;;;;;16.58;53.80;100864.38;5073913;28;45696;-78
2023/05/11 12:22:52;;;;;;;;;3.25;3.00;;;;;16.59;53.08;100874.03;5073812;27;46324;-77
2023/05/11 12:25:19;;;;;;;;;2.75;2.00;;;;;16.57;53.18;100875.97;5074005;27;46172;-76
2023/05/11 12:31:07;;;;;;;;;2.00;2.00;;;;;16.64;53.35;100870.00;5073703;28;45486;-74
2023/05/11 12:33:32;;;;;;;;;2.75;2.25;;;;;16.69;53.49;100867.75;5073690;27;45775;-78
2023/05/11 12:35:58;;;;;;;;;2.50;2.00;;;;;16.76;52.99;100860.09;5073873;27;45740;-79
2023/05/11 12:38:23;;;;;;;;;4.75;3.75;;;;;16.83;52.92;100861.19;5073571;27;45817;-79
2023/05/11 12:40:50;;;;;;;;;2.00;2.00;;;;;16.86;51.98;100863.53;5073927;27;45533;-79
2023/05/11 12:43:20;;;;;;;;;3.00;2.00;;;;;16.90;52.27;100866.72;5073245;27;45796;-81
2023/05/11 12:45:46;;;;;;;;;2.50;2.50;;;;;16.97;52.00;100866.03;5072314;28;46346;-78
2023/05/11 12:48:13;;;;;;;;;3.50;3.00;;;;;17.09;51.04;100870.16;5073563;27;45710;-77
2023/05/11 12:50:44;;;;;;;;;3.00;2.00;;;;;17.15;51.21;100868.75;5074260;28;45610;-81
2023/05/11 12:53:17;;;;;;;;;2.00;2.00;;;;;17.19;51.32;100854.25;5073528;27;45563;-80